Terminal Aerodrome Forecast
Issued by NWS Binghamton, NY

Home | Current Version | Previous Version | Text Only | Print | Product List | Glossary On
Versions: 1 2 3 4 5 6 7 8 9 10 11 12 13 14 15 16 17 18 19 20 21 22 23 24 25
000
FTUS41 KBGM 200522
TAFBGM
TAF
KBGM 200522Z 2006/2106 32012G20KT P6SM -SHSN BKN015 OVC025
     FM201600 32013G23KT P6SM -SHSN BKN045
     FM202300 33012KT P6SM BKN040
     FM210400 32004KT P6SM SCT050=

USA.gov is the U.S. government's official web portal to all federal, state and local government web resources and services.